sensor_id;sensor_type;location;lat;lon;timestamp;P1;durP1;ratioP1;P2;durP2;ratioP2
16766;SDS011;8501;49.926;8.404;2022-07-21T00:01:27;22.02;;;17.40;;
16766;SDS011;8501;49.926;8.404;2022-07-21T00:03:52;22.23;;;18.00;;
16766;SDS011;8501;49.926;8.404;2022-07-21T00:06:18;21.35;;;17.35;;
16766;SDS011;8501;49.926;8.404;2022-07-21T00:08:43;21.73;;;16.77;;
16766;SDS011;8501;49.926;8.404;2022-07-21T00:11:09;22.30;;;17.33;;
16766;SDS011;8501;49.926;8.404;2022-07-21T00:13:34;20.75;;;16.48;;
16766;SDS011;8501;49.926;8.404;2022-07-21T00:16:00;22.52;;;17.73;;
16766;SDS011;8501;49.926;8.404;2022-07-21T00:18:26;22.05;;;17.10;;
16766;SDS011;8501;49.926;8.404;2022-07-21T00:20:53;21.90;;;17.25;;
16766;SDS011;8501;49.926;8.404;2022-07-21T00:23:23;20.92;;;16.95;;
16766;SDS011;8501;49.926;8.404;2022-07-21T00:25:50;19.10;;;16.45;;
16766;SDS011;8501;49.926;8.404;2022-07-21T00:28:16;20.25;;;16.42;;
16766;SDS011;8501;49.926;8.404;2022-07-21T00:30:41;22.73;;;16.25;;
16766;SDS011;8501;49.926;8.404;2022-07-21T00:33:07;19.17;;;15.52;;
16766;SDS011;8501;49.926;8.404;2022-07-21T00:35:33;21.88;;;16.48;;
16766;SDS011;8501;49.926;8.404;2022-07-21T00:37:58;20.55;;;15.45;;
16766;SDS011;8501;49.926;8.404;2022-07-21T00:40:24;18.90;;;15.27;;
16766;SDS011;8501;49.926;8.404;2022-07-21T00:42:50;18.83;;;15.35;;
16766;SDS011;8501;49.926;8.404;2022-07-21T00:45:16;18.83;;;16.02;;
16766;SDS011;8501;49.926;8.404;2022-07-21T00:47:42;17.70;;;15.55;;
16766;SDS011;8501;49.926;8.404;2022-07-21T00:50:09;18.90;;;15.77;;
16766;SDS011;8501;49.926;8.404;2022-07-21T00:52:42;19.70;;;15.30;;
16766;SDS011;8501;49.926;8.404;2022-07-21T00:55:10;22.70;;;15.73;;
16766;SDS011;8501;49.926;8.404;2022-07-21T00:57:38;18.98;;;15.52;;
16766;SDS011;8501;49.926;8.404;2022-07-21T01:00:06;21.35;;;16.13;;
16766;SDS011;8501;49.926;8.404;2022-07-21T01:02:34;19.63;;;15.43;;
16766;SDS011;8501;49.926;8.404;2022-07-21T01:05:03;21.00;;;16.17;;
16766;SDS011;8501;49.926;8.404;2022-07-21T01:07:29;24.73;;;16.80;;
16766;SDS011;8501;49.926;8.404;2022-07-21T01:09:55;18.60;;;16.20;;
16766;SDS011;8501;49.926;8.404;2022-07-21T01:12:21;22.88;;;16.25;;
16766;SDS011;8501;49.926;8.404;2022-07-21T01:14:47;21.23;;;16.17;;
16766;SDS011;8501;49.926;8.404;2022-07-21T01:17:13;20.60;;;15.93;;
16766;SDS011;8501;49.926;8.404;2022-07-21T01:19:39;21.15;;;16.40;;
16766;SDS011;8501;49.926;8.404;2022-07-21T01:22:04;23.02;;;17.52;;
16766;SDS011;8501;49.926;8.404;2022-07-21T01:24:31;20.60;;;16.33;;
16766;SDS011;8501;49.926;8.404;2022-07-21T01:26:57;23.40;;;17.08;;
16766;SDS011;8501;49.926;8.404;2022-07-21T01:29:22;20.05;;;15.98;;
16766;SDS011;8501;49.926;8.404;2022-07-21T01:31:48;20.25;;;16.15;;
16766;SDS011;8501;49.926;8.404;2022-07-21T01:34:14;18.15;;;16.13;;
16766;SDS011;8501;49.926;8.404;2022-07-21T01:36:40;18.05;;;15.15;;
16766;SDS011;8501;49.926;8.404;2022-07-21T01:39:06;20.80;;;16.25;;
16766;SDS011;8501;49.926;8.404;2022-07-21T01:41:51;22.02;;;16.55;;
16766;SDS011;8501;49.926;8.404;2022-07-21T01:44:17;19.90;;;16.13;;
16766;SDS011;8501;49.926;8.404;2022-07-21T01:46:51;21.65;;;16.17;;
16766;SDS011;8501;49.926;8.404;2022-07-21T01:49:18;20.80;;;16.15;;
16766;SDS011;8501;49.926;8.404;2022-07-21T01:51:44;22.45;;;16.80;;
16766;SDS011;8501;49.926;8.404;2022-07-21T01:54:10;20.55;;;16.52;;
16766;SDS011;8501;49.926;8.404;2022-07-21T01:56:37;18.52;;;15.80;;
16766;SDS011;8501;49.926;8.404;2022-07-21T01:59:04;20.00;;;16.13;;
16766;SDS011;8501;49.926;8.404;2022-07-21T02:01:30;20.63;;;15.93;;
16766;SDS011;8501;49.926;8.404;2022-07-21T02:03:57;18.17;;;15.40;;
16766;SDS011;8501;49.926;8.404;2022-07-21T02:06:24;18.63;;;15.10;;
16766;SDS011;8501;49.926;8.404;2022-07-21T02:08:50;19.10;;;14.32;;
16766;SDS011;8501;49.926;8.404;2022-07-21T02:11:16;17.63;;;14.15;;
16766;SDS011;8501;49.926;8.404;2022-07-21T02:13:42;16.35;;;14.55;;
16766;SDS011;8501;49.926;8.404;2022-07-21T02:16:09;16.40;;;14.38;;
16766;SDS011;8501;49.926;8.404;2022-07-21T02:18:34;16.27;;;13.98;;
16766;SDS011;8501;49.926;8.404;2022-07-21T02:21:00;16.83;;;13.55;;
16766;SDS011;8501;49.926;8.404;2022-07-21T02:23:27;15.25;;;13.07;;
16766;SDS011;8501;49.926;8.404;2022-07-21T02:25:53;15.15;;;12.73;;
16766;SDS011;8501;49.926;8.404;2022-07-21T02:28:19;14.77;;;12.20;;
16766;SDS011;8501;49.926;8.404;2022-07-21T02:30:45;13.73;;;11.40;;
16766;SDS011;8501;49.926;8.404;2022-07-21T02:33:12;12.85;;;11.30;;
16766;SDS011;8501;49.926;8.404;2022-07-21T02:35:37;11.90;;;10.20;;
16766;SDS011;8501;49.926;8.404;2022-07-21T02:38:03;12.55;;;10.35;;
16766;SDS011;8501;49.926;8.404;2022-07-21T02:40:29;12.70;;;10.55;;
16766;SDS011;8501;49.926;8.404;2022-07-21T02:42:55;11.40;;;10.00;;
16766;SDS011;8501;49.926;8.404;2022-07-21T02:45:21;11.85;;;10.02;;
16766;SDS011;8501;49.926;8.404;2022-07-21T02:47:57;12.02;;;10.70;;
16766;SDS011;8501;49.926;8.404;2022-07-21T02:50:26;11.60;;;10.20;;
16766;SDS011;8501;49.926;8.404;2022-07-21T02:52:54;11.80;;;10.10;;
16766;SDS011;8501;49.926;8.404;2022-07-21T02:55:20;12.15;;;9.60;;
16766;SDS011;8501;49.926;8.404;2022-07-21T02:57:46;11.55;;;9.80;;
16766;SDS011;8501;49.926;8.404;2022-07-21T03:00:11;11.18;;;8.80;;
16766;SDS011;8501;49.926;8.404;2022-07-21T03:02:37;10.93;;;8.93;;
16766;SDS011;8501;49.926;8.404;2022-07-21T03:05:03;10.50;;;9.18;;
16766;SDS011;8501;49.926;8.404;2022-07-21T03:07:29;9.23;;;8.23;;
16766;SDS011;8501;49.926;8.404;2022-07-21T03:09:54;8.98;;;7.35;;
16766;SDS011;8501;49.926;8.404;2022-07-21T03:12:20;7.82;;;7.05;;
16766;SDS011;8501;49.926;8.404;2022-07-21T03:14:45;8.00;;;7.07;;
16766;SDS011;8501;49.926;8.404;2022-07-21T03:17:11;9.80;;;7.47;;
16766;SDS011;8501;49.926;8.404;2022-07-21T03:19:36;11.18;;;7.60;;
16766;SDS011;8501;49.926;8.404;2022-07-21T03:22:02;8.80;;;7.50;;
16766;SDS011;8501;49.926;8.404;2022-07-21T03:24:28;8.75;;;7.85;;
16766;SDS011;8501;49.926;8.404;2022-07-21T03:26:54;9.35;;;7.53;;
16766;SDS011;8501;49.926;8.404;2022-07-21T03:29:20;9.68;;;7.82;;
16766;SDS011;8501;49.926;8.404;2022-07-21T03:31:46;10.40;;;8.30;;
16766;SDS011;8501;49.926;8.404;2022-07-21T03:34:12;8.95;;;8.05;;
16766;SDS011;8501;49.926;8.404;2022-07-21T03:36:37;9.15;;;7.88;;
16766;SDS011;8501;49.926;8.404;2022-07-21T03:39:03;9.68;;;8.38;;
16766;SDS011;8501;49.926;8.404;2022-07-21T03:41:28;9.30;;;8.35;;
16766;SDS011;8501;49.926;8.404;2022-07-21T03:43:54;10.30;;;7.80;;
16766;SDS011;8501;49.926;8.404;2022-07-21T03:46:19;12.05;;;8.60;;
16766;SDS011;8501;49.926;8.404;2022-07-21T03:48:45;9.73;;;8.73;;
16766;SDS011;8501;49.926;8.404;2022-07-21T03:51:10;10.93;;;8.90;;
16766;SDS011;8501;49.926;8.404;2022-07-21T03:53:36;11.63;;;8.55;;
16766;SDS011;8501;49.926;8.404;2022-07-21T03:56:02;10.07;;;9.00;;
16766;SDS011;8501;49.926;8.404;2022-07-21T03:58:28;11.00;;;9.00;;
16766;SDS011;8501;49.926;8.404;2022-07-21T04:00:54;9.70;;;8.30;;
16766;SDS011;8501;49.926;8.404;2022-07-21T04:03:19;9.98;;;8.38;;
16766;SDS011;8501;49.926;8.404;2022-07-21T04:05:45;10.13;;;8.45;;
16766;SDS011;8501;49.926;8.404;2022-07-21T04:08:11;9.98;;;8.15;;
16766;SDS011;8501;49.926;8.404;2022-07-21T04:10:38;10.40;;;8.60;;
16766;SDS011;8501;49.926;8.404;2022-07-21T04:13:06;10.10;;;8.73;;
16766;SDS011;8501;49.926;8.404;2022-07-21T04:15:34;9.73;;;8.25;;
16766;SDS011;8501;49.926;8.404;2022-07-21T04:18:00;9.00;;;8.05;;
16766;SDS011;8501;49.926;8.404;2022-07-21T04:20:26;9.30;;;8.15;;
16766;SDS011;8501;49.926;8.404;2022-07-21T04:22:52;11.77;;;8.18;;
16766;SDS011;8501;49.926;8.404;2022-07-21T04:25:18;9.80;;;8.38;;
16766;SDS011;8501;49.926;8.404;2022-07-21T04:27:44;10.30;;;8.60;;
16766;SDS011;8501;49.926;8.404;2022-07-21T04:30:12;8.82;;;7.90;;
16766;SDS011;8501;49.926;8.404;2022-07-21T04:32:39;9.60;;;8.10;;
16766;SDS011;8501;49.926;8.404;2022-07-21T04:35:06;9.50;;;8.45;;
16766;SDS011;8501;49.926;8.404;2022-07-21T04:37:32;10.85;;;8.70;;
16766;SDS011;8501;49.926;8.404;2022-07-21T04:39:59;10.40;;;8.27;;
16766;SDS011;8501;49.926;8.404;2022-07-21T04:42:25;9.35;;;8.07;;
16766;SDS011;8501;49.926;8.404;2022-07-21T04:44:50;10.25;;;8.15;;
16766;SDS011;8501;49.926;8.404;2022-07-21T04:47:16;9.73;;;8.15;;
16766;SDS011;8501;49.926;8.404;2022-07-21T04:49:41;11.40;;;8.18;;
16766;SDS011;8501;49.926;8.404;2022-07-21T04:52:07;10.02;;;8.55;;
16766;SDS011;8501;49.926;8.404;2022-07-21T04:54:33;10.98;;;8.35;;
16766;SDS011;8501;49.926;8.404;2022-07-21T04:56:59;10.43;;;8.63;;
16766;SDS011;8501;49.926;8.404;2022-07-21T04:59:27;9.30;;;8.30;;
16766;SDS011;8501;49.926;8.404;2022-07-21T05:01:54;10.38;;;8.55;;
16766;SDS011;8501;49.926;8.404;2022-07-21T05:04:20;10.63;;;8.20;;
16766;SDS011;8501;49.926;8.404;2022-07-21T05:06:46;11.10;;;8.35;;
16766;SDS011;8501;49.926;8.404;2022-07-21T05:09:11;10.73;;;8.13;;
16766;SDS011;8501;49.926;8.404;2022-07-21T05:11:37;10.30;;;8.25;;
16766;SDS011;8501;49.926;8.404;2022-07-21T05:14:02;9.23;;;8.02;;
16766;SDS011;8501;49.926;8.404;2022-07-21T05:16:29;9.40;;;8.38;;
16766;SDS011;8501;49.926;8.404;2022-07-21T05:18:54;10.27;;;8.73;;
16766;SDS011;8501;49.926;8.404;2022-07-21T05:21:20;9.43;;;8.25;;
16766;SDS011;8501;49.926;8.404;2022-07-21T05:23:45;10.23;;;8.60;;
16766;SDS011;8501;49.926;8.404;2022-07-21T05:26:11;10.93;;;8.38;;
16766;SDS011;8501;49.926;8.404;2022-07-21T05:28:38;11.40;;;8.52;;
16766;SDS011;8501;49.926;8.404;2022-07-21T05:31:04;10.95;;;8.68;;
16766;SDS011;8501;49.926;8.404;2022-07-21T05:33:29;10.10;;;8.80;;
16766;SDS011;8501;49.926;8.404;2022-07-21T05:35:55;10.10;;;8.98;;
16766;SDS011;8501;49.926;8.404;2022-07-21T05:38:21;10.90;;;8.95;;
16766;SDS011;8501;49.926;8.404;2022-07-21T05:40:47;10.07;;;8.75;;
16766;SDS011;8501;49.926;8.404;2022-07-21T05:43:13;10.95;;;8.95;;
16766;SDS011;8501;49.926;8.404;2022-07-21T05:45:38;10.15;;;8.80;;
16766;SDS011;8501;49.926;8.404;2022-07-21T05:48:04;13.30;;;9.43;;
16766;SDS011;8501;49.926;8.404;2022-07-21T05:50:30;11.10;;;8.85;;
16766;SDS011;8501;49.926;8.404;2022-07-21T05:52:55;9.88;;;8.73;;
16766;SDS011;8501;49.926;8.404;2022-07-21T05:55:21;10.32;;;8.57;;
16766;SDS011;8501;49.926;8.404;2022-07-21T05:57:46;11.15;;;8.60;;
16766;SDS011;8501;49.926;8.404;2022-07-21T06:00:12;10.35;;;9.07;;
16766;SDS011;8501;49.926;8.404;2022-07-21T06:02:38;10.68;;;8.60;;
16766;SDS011;8501;49.926;8.404;2022-07-21T06:05:04;9.77;;;8.65;;
16766;SDS011;8501;49.926;8.404;2022-07-21T06:07:32;10.35;;;8.82;;
16766;SDS011;8501;49.926;8.404;2022-07-21T06:09:57;9.88;;;8.88;;
16766;SDS011;8501;49.926;8.404;2022-07-21T06:12:24;9.68;;;8.50;;
16766;SDS011;8501;49.926;8.404;2022-07-21T06:14:50;9.98;;;8.63;;
16766;SDS011;8501;49.926;8.404;2022-07-21T06:17:15;9.32;;;8.07;;
16766;SDS011;8501;49.926;8.404;2022-07-21T06:19:41;10.73;;;8.80;;
16766;SDS011;8501;49.926;8.404;2022-07-21T06:22:06;10.75;;;8.65;;
16766;SDS011;8501;49.926;8.404;2022-07-21T06:24:32;11.70;;;8.70;;
16766;SDS011;8501;49.926;8.404;2022-07-21T06:26:57;10.02;;;8.48;;
16766;SDS011;8501;49.926;8.404;2022-07-21T06:29:23;13.05;;;8.88;;
16766;SDS011;8501;49.926;8.404;2022-07-21T06:31:49;10.57;;;8.43;;
16766;SDS011;8501;49.926;8.404;2022-07-21T06:34:15;10.32;;;8.35;;
16766;SDS011;8501;49.926;8.404;2022-07-21T06:36:40;10.93;;;8.50;;
16766;SDS011;8501;49.926;8.404;2022-07-21T06:39:06;9.70;;;8.48;;
16766;SDS011;8501;49.926;8.404;2022-07-21T06:41:31;11.30;;;8.80;;
16766;SDS011;8501;49.926;8.404;2022-07-21T06:43:57;9.98;;;8.18;;
16766;SDS011;8501;49.926;8.404;2022-07-21T06:46:23;10.65;;;8.30;;
16766;SDS011;8501;49.926;8.404;2022-07-21T06:48:49;9.57;;;8.15;;
16766;SDS011;8501;49.926;8.404;2022-07-21T06:51:16;9.65;;;8.60;;
16766;SDS011;8501;49.926;8.404;2022-07-21T06:53:42;9.95;;;8.30;;
16766;SDS011;8501;49.926;8.404;2022-07-21T06:56:08;8.68;;;7.78;;
16766;SDS011;8501;49.926;8.404;2022-07-21T06:58:33;9.52;;;8.52;;
16766;SDS011;8501;49.926;8.404;2022-07-21T07:01:00;9.07;;;7.75;;
16766;SDS011;8501;49.926;8.404;2022-07-21T07:03:25;10.43;;;7.88;;
16766;SDS011;8501;49.926;8.404;2022-07-21T07:05:51;10.20;;;8.15;;
16766;SDS011;8501;49.926;8.404;2022-07-21T07:08:17;8.45;;;7.55;;
16766;SDS011;8501;49.926;8.404;2022-07-21T07:10:43;9.65;;;7.68;;
16766;SDS011;8501;49.926;8.404;2022-07-21T07:13:10;8.93;;;7.80;;
16766;SDS011;8501;49.926;8.404;2022-07-21T07:15:38;9.50;;;8.00;;
16766;SDS011;8501;49.926;8.404;2022-07-21T07:18:04;8.93;;;8.02;;
16766;SDS011;8501;49.926;8.404;2022-07-21T07:20:29;9.38;;;8.02;;
16766;SDS011;8501;49.926;8.404;2022-07-21T07:22:55;9.02;;;7.55;;
16766;SDS011;8501;49.926;8.404;2022-07-21T07:25:21;8.80;;;7.90;;
16766;SDS011;8501;49.926;8.404;2022-07-21T07:27:47;11.80;;;8.07;;
16766;SDS011;8501;49.926;8.404;2022-07-21T07:30:14;9.73;;;7.38;;
16766;SDS011;8501;49.926;8.404;2022-07-21T07:32:40;8.50;;;7.60;;
16766;SDS011;8501;49.926;8.404;2022-07-21T07:35:07;7.95;;;7.15;;
16766;SDS011;8501;49.926;8.404;2022-07-21T07:37:35;8.77;;;6.80;;
16766;SDS011;8501;49.926;8.404;2022-07-21T07:40:05;8.27;;;7.40;;
16766;SDS011;8501;49.926;8.404;2022-07-21T07:42:32;8.50;;;7.15;;
16766;SDS011;8501;49.926;8.404;2022-07-21T07:44:59;8.27;;;6.90;;
16766;SDS011;8501;49.926;8.404;2022-07-21T07:47:24;8.63;;;7.47;;
16766;SDS011;8501;49.926;8.404;2022-07-21T07:49:50;8.35;;;6.95;;
16766;SDS011;8501;49.926;8.404;2022-07-21T07:52:17;7.97;;;6.97;;
16766;SDS011;8501;49.926;8.404;2022-07-21T07:54:44;7.88;;;7.07;;
16766;SDS011;8501;49.926;8.404;2022-07-21T07:57:09;8.93;;;7.25;;
16766;SDS011;8501;49.926;8.404;2022-07-21T07:59:35;9.25;;;7.88;;
16766;SDS011;8501;49.926;8.404;2022-07-21T08:02:00;9.40;;;7.60;;
16766;SDS011;8501;49.926;8.404;2022-07-21T08:04:26;8.38;;;7.53;;
16766;SDS011;8501;49.926;8.404;2022-07-21T08:06:51;8.38;;;6.95;;
16766;SDS011;8501;49.926;8.404;2022-07-21T08:09:17;8.60;;;7.70;;
16766;SDS011;8501;49.926;8.404;2022-07-21T08:11:44;10.80;;;8.95;;
16766;SDS011;8501;49.926;8.404;2022-07-21T08:14:12;13.15;;;10.05;;
16766;SDS011;8501;49.926;8.404;2022-07-21T08:16:38;16.38;;;8.30;;
16766;SDS011;8501;49.926;8.404;2022-07-21T08:19:04;14.02;;;9.55;;
16766;SDS011;8501;49.926;8.404;2022-07-21T08:21:29;13.45;;;11.13;;
16766;SDS011;8501;49.926;8.404;2022-07-21T08:23:56;12.18;;;8.00;;
16766;SDS011;8501;49.926;8.404;2022-07-21T08:26:22;10.35;;;8.70;;
16766;SDS011;8501;49.926;8.404;2022-07-21T08:28:48;10.20;;;7.45;;
16766;SDS011;8501;49.926;8.404;2022-07-21T08:31:13;11.10;;;8.00;;
16766;SDS011;8501;49.926;8.404;2022-07-21T08:33:39;11.10;;;8.65;;
16766;SDS011;8501;49.926;8.404;2022-07-21T08:36:04;13.40;;;9.85;;
16766;SDS011;8501;49.926;8.404;2022-07-21T08:38:30;8.05;;;7.25;;
16766;SDS011;8501;49.926;8.404;2022-07-21T08:40:56;8.13;;;7.25;;
16766;SDS011;8501;49.926;8.404;2022-07-21T08:43:22;7.47;;;6.50;;
16766;SDS011;8501;49.926;8.404;2022-07-21T08:45:49;7.30;;;6.60;;
16766;SDS011;8501;49.926;8.404;2022-07-21T08:48:15;7.75;;;6.30;;
16766;SDS011;8501;49.926;8.404;2022-07-21T08:50:44;8.20;;;6.18;;
16766;SDS011;8501;49.926;8.404;2022-07-21T08:53:10;6.88;;;6.15;;
16766;SDS011;8501;49.926;8.404;2022-07-21T08:55:36;6.78;;;5.57;;
16766;SDS011;8501;49.926;8.404;2022-07-21T08:58:07;7.47;;;5.50;;
16766;SDS011;8501;49.926;8.404;2022-07-21T09:00:34;6.10;;;5.50;;
16766;SDS011;8501;49.926;8.404;2022-07-21T09:03:15;6.38;;;5.78;;
16766;SDS011;8501;49.926;8.404;2022-07-21T09:06:02;7.47;;;5.80;;
16766;SDS011;8501;49.926;8.404;2022-07-21T09:08:39;6.22;;;5.40;;
16766;SDS011;8501;49.926;8.404;2022-07-21T09:11:28;7.45;;;5.97;;
16766;SDS011;8501;49.926;8.404;2022-07-21T09:14:05;6.07;;;5.45;;
16766;SDS011;8501;49.926;8.404;2022-07-21T09:16:32;5.72;;;5.22;;
16766;SDS011;8501;49.926;8.404;2022-07-21T09:19:05;8.00;;;6.03;;
16766;SDS011;8501;49.926;8.404;2022-07-21T09:21:39;6.28;;;5.55;;
16766;SDS011;8501;49.926;8.404;2022-07-21T09:26:55;5.03;;;4.35;;
16766;SDS011;8501;49.926;8.404;2022-07-21T09:29:24;7.53;;;4.47;;
16766;SDS011;8501;49.926;8.404;2022-07-21T09:31:50;5.60;;;4.50;;
16766;SDS011;8501;49.926;8.404;2022-07-21T09:34:16;8.07;;;5.60;;
16766;SDS011;8501;49.926;8.404;2022-07-21T09:36:56;5.90;;;4.45;;
16766;SDS011;8501;49.926;8.404;2022-07-21T09:42:19;4.63;;;4.15;;
16766;SDS011;8501;49.926;8.404;2022-07-21T09:44:47;5.18;;;4.68;;
16766;SDS011;8501;49.926;8.404;2022-07-21T09:47:15;5.28;;;4.50;;
16766;SDS011;8501;49.926;8.404;2022-07-21T09:49:43;5.68;;;5.00;;
16766;SDS011;8501;49.926;8.404;2022-07-21T09:52:19;5.65;;;4.75;;
16766;SDS011;8501;49.926;8.404;2022-07-21T09:54:51;4.93;;;3.92;;
16766;SDS011;8501;49.926;8.404;2022-07-21T09:57:18;5.63;;;4.60;;
16766;SDS011;8501;49.926;8.404;2022-07-21T09:59:45;5.35;;;4.85;;
16766;SDS011;8501;49.926;8.404;2022-07-21T10:02:16;5.28;;;4.60;;
16766;SDS011;8501;49.926;8.404;2022-07-21T10:04:45;5.15;;;4.47;;
16766;SDS011;8501;49.926;8.404;2022-07-21T10:07:13;5.38;;;4.70;;
16766;SDS011;8501;49.926;8.404;2022-07-21T10:09:40;5.60;;;4.80;;
16766;SDS011;8501;49.926;8.404;2022-07-21T10:12:07;5.55;;;4.65;;
16766;SDS011;8501;49.926;8.404;2022-07-21T10:14:33;5.20;;;4.70;;
16766;SDS011;8501;49.926;8.404;2022-07-21T10:17:00;5.57;;;4.97;;
16766;SDS011;8501;49.926;8.404;2022-07-21T10:19:29;6.40;;;5.10;;
16766;SDS011;8501;49.926;8.404;2022-07-21T10:22:19;5.93;;;5.32;;
16766;SDS011;8501;49.926;8.404;2022-07-21T10:24:49;6.65;;;5.18;;
16766;SDS011;8501;49.926;8.404;2022-07-21T10:27:15;5.88;;;5.28;;
16766;SDS011;8501;49.926;8.404;2022-07-21T10:32:12;5.00;;;4.53;;
16766;SDS011;8501;49.926;8.404;2022-07-21T10:34:39;4.32;;;3.92;;
16766;SDS011;8501;49.926;8.404;2022-07-21T10:37:05;4.65;;;4.25;;
16766;SDS011;8501;49.926;8.404;2022-07-21T10:39:31;5.38;;;4.55;;
16766;SDS011;8501;49.926;8.404;2022-07-21T10:41:58;5.13;;;4.30;;
16766;SDS011;8501;49.926;8.404;2022-07-21T10:47:37;5.53;;;4.75;;
16766;SDS011;8501;49.926;8.404;2022-07-21T10:53:00;4.32;;;3.92;;
16766;SDS011;8501;49.926;8.404;2022-07-21T10:57:40;4.43;;;4.00;;
16766;SDS011;8501;49.926;8.404;2022-07-21T11:02:57;5.97;;;4.10;;
16766;SDS011;8501;49.926;8.404;2022-07-21T11:05:25;4.88;;;4.07;;
16766;SDS011;8501;49.926;8.404;2022-07-21T11:08:08;6.07;;;4.25;;
16766;SDS011;8501;49.926;8.404;2022-07-21T11:11:00;6.13;;;4.25;;
16766;SDS011;8501;49.926;8.404;2022-07-21T11:16:40;5.25;;;4.25;;
16766;SDS011;8501;49.926;8.404;2022-07-21T11:22:10;5.30;;;4.30;;
16766;SDS011;8501;49.926;8.404;2022-07-21T11:24:36;5.00;;;4.53;;
16766;SDS011;8501;49.926;8.404;2022-07-21T11:27:21;5.15;;;4.65;;
16766;SDS011;8501;49.926;8.404;2022-07-21T11:29:49;4.90;;;4.40;;
16766;SDS011;8501;49.926;8.404;2022-07-21T11:32:16;5.18;;;4.68;;
16766;SDS011;8501;49.926;8.404;2022-07-21T11:34:48;5.10;;;4.60;;
16766;SDS011;8501;49.926;8.404;2022-07-21T11:37:18;7.13;;;4.80;;
16766;SDS011;8501;49.926;8.404;2022-07-21T11:39:54;5.85;;;4.43;;
16766;SDS011;8501;49.926;8.404;2022-07-21T11:42:19;6.00;;;4.70;;
16766;SDS011;8501;49.926;8.404;2022-07-21T11:44:45;5.60;;;4.82;;
16766;SDS011;8501;49.926;8.404;2022-07-21T11:47:12;5.40;;;4.90;;
16766;SDS011;8501;49.926;8.404;2022-07-21T11:49:39;5.97;;;5.00;;
16766;SDS011;8501;49.926;8.404;2022-07-21T11:52:07;5.45;;;4.95;;
16766;SDS011;8501;49.926;8.404;2022-07-21T11:54:34;5.55;;;5.05;;
16766;SDS011;8501;49.926;8.404;2022-07-21T11:57:10;6.55;;;5.22;;
16766;SDS011;8501;49.926;8.404;2022-07-21T11:59:37;6.47;;;5.30;;
16766;SDS011;8501;49.926;8.404;2022-07-21T12:02:06;5.68;;;5.15;;
16766;SDS011;8501;49.926;8.404;2022-07-21T12:04:38;7.68;;;5.78;;
16766;SDS011;8501;49.926;8.404;2022-07-21T12:10:07;7.18;;;6.22;;
16766;SDS011;8501;49.926;8.404;2022-07-21T12:12:46;7.07;;;6.38;;
16766;SDS011;8501;49.926;8.404;2022-07-21T12:17:44;6.65;;;5.95;;
16766;SDS011;8501;49.926;8.404;2022-07-21T12:20:12;7.00;;;6.03;;
16766;SDS011;8501;49.926;8.404;2022-07-21T12:22:45;7.28;;;6.57;;
16766;SDS011;8501;49.926;8.404;2022-07-21T12:25:15;8.82;;;6.30;;
16766;SDS011;8501;49.926;8.404;2022-07-21T12:27:43;7.05;;;6.35;;
16766;SDS011;8501;49.926;8.404;2022-07-21T12:32:56;8.10;;;7.30;;
16766;SDS011;8501;49.926;8.404;2022-07-21T12:35:33;7.95;;;6.95;;
16766;SDS011;8501;49.926;8.404;2022-07-21T12:40:29;8.00;;;7.20;;
16766;SDS011;8501;49.926;8.404;2022-07-21T12:45:56;8.15;;;7.35;;
16766;SDS011;8501;49.926;8.404;2022-07-21T12:48:37;9.27;;;8.02;;
16766;SDS011;8501;49.926;8.404;2022-07-21T12:51:05;12.40;;;10.80;;
16766;SDS011;8501;49.926;8.404;2022-07-21T12:53:38;8.63;;;7.75;;
16766;SDS011;8501;49.926;8.404;2022-07-21T12:56:09;8.23;;;7.43;;
16766;SDS011;8501;49.926;8.404;2022-07-21T12:58:36;8.85;;;7.90;;
16766;SDS011;8501;49.926;8.404;2022-07-21T13:01:03;9.32;;;8.27;;
16766;SDS011;8501;49.926;8.404;2022-07-21T13:03:30;11.13;;;10.00;;
16766;SDS011;8501;49.926;8.404;2022-07-21T13:05:56;8.30;;;7.50;;
16766;SDS011;8501;49.926;8.404;2022-07-21T13:08:23;8.68;;;7.70;;
16766;SDS011;8501;49.926;8.404;2022-07-21T13:10:48;9.82;;;7.20;;
16766;SDS011;8501;49.926;8.404;2022-07-21T13:13:14;8.13;;;7.28;;
16766;SDS011;8501;49.926;8.404;2022-07-21T13:15:39;7.70;;;7.00;;
16766;SDS011;8501;49.926;8.404;2022-07-21T13:18:05;7.72;;;7.00;;
16766;SDS011;8501;49.926;8.404;2022-07-21T13:20:33;8.05;;;7.25;;
16766;SDS011;8501;49.926;8.404;2022-07-21T13:25:35;8.95;;;7.78;;
16766;SDS011;8501;49.926;8.404;2022-07-21T13:28:01;9.52;;;8.07;;
16766;SDS011;8501;49.926;8.404;2022-07-21T13:30:28;9.52;;;7.82;;
16766;SDS011;8501;49.926;8.404;2022-07-21T13:32:54;8.93;;;7.32;;
16766;SDS011;8501;49.926;8.404;2022-07-21T13:35:19;8.98;;;7.53;;
16766;SDS011;8501;49.926;8.404;2022-07-21T13:37:45;8.85;;;7.95;;
16766;SDS011;8501;49.926;8.404;2022-07-21T13:40:10;8.00;;;7.20;;
16766;SDS011;8501;49.926;8.404;2022-07-21T13:42:36;8.73;;;7.50;;
16766;SDS011;8501;49.926;8.404;2022-07-21T13:45:02;7.97;;;7.28;;
16766;SDS011;8501;49.926;8.404;2022-07-21T13:47:28;7.20;;;6.47;;
16766;SDS011;8501;49.926;8.404;2022-07-21T13:49:54;7.63;;;6.40;;
16766;SDS011;8501;49.926;8.404;2022-07-21T13:52:19;6.38;;;5.78;;
16766;SDS011;8501;49.926;8.404;2022-07-21T13:54:45;7.20;;;6.50;;
16766;SDS011;8501;49.926;8.404;2022-07-21T13:59:39;7.25;;;6.50;;
16766;SDS011;8501;49.926;8.404;2022-07-21T14:02:06;8.02;;;6.55;;
16766;SDS011;8501;49.926;8.404;2022-07-21T14:04:32;6.70;;;6.10;;
16766;SDS011;8501;49.926;8.404;2022-07-21T14:06:58;7.60;;;6.80;;
16766;SDS011;8501;49.926;8.404;2022-07-21T14:09:23;8.63;;;7.20;;
16766;SDS011;8501;49.926;8.404;2022-07-21T14:11:49;7.88;;;7.05;;
16766;SDS011;8501;49.926;8.404;2022-07-21T14:14:15;8.80;;;7.10;;
16766;SDS011;8501;49.926;8.404;2022-07-21T14:16:46;11.00;;;7.90;;
16766;SDS011;8501;49.926;8.404;2022-07-21T14:19:12;8.57;;;7.68;;
16766;SDS011;8501;49.926;8.404;2022-07-21T14:21:38;8.45;;;7.65;;
16766;SDS011;8501;49.926;8.404;2022-07-21T14:24:03;8.70;;;7.30;;
16766;SDS011;8501;49.926;8.404;2022-07-21T14:26:48;8.00;;;6.60;;
16766;SDS011;8501;49.926;8.404;2022-07-21T14:29:13;7.30;;;6.50;;
16766;SDS011;8501;49.926;8.404;2022-07-21T14:31:39;8.40;;;6.78;;
16766;SDS011;8501;49.926;8.404;2022-07-21T14:34:04;8.93;;;6.80;;
16766;SDS011;8501;49.926;8.404;2022-07-21T14:36:30;7.47;;;6.68;;
16766;SDS011;8501;49.926;8.404;2022-07-21T14:38:55;6.53;;;5.88;;
16766;SDS011;8501;49.926;8.404;2022-07-21T14:41:21;7.35;;;6.65;;
16766;SDS011;8501;49.926;8.404;2022-07-21T14:43:47;7.28;;;6.20;;
16766;SDS011;8501;49.926;8.404;2022-07-21T14:46:14;7.10;;;6.40;;
16766;SDS011;8501;49.926;8.404;2022-07-21T14:48:40;8.43;;;7.53;;
16766;SDS011;8501;49.926;8.404;2022-07-21T14:51:05;10.38;;;8.82;;
16766;SDS011;8501;49.926;8.404;2022-07-21T14:53:31;8.63;;;7.78;;
16766;SDS011;8501;49.926;8.404;2022-07-21T14:55:56;7.60;;;6.90;;
16766;SDS011;8501;49.926;8.404;2022-07-21T14:58:22;8.88;;;6.80;;
16766;SDS011;8501;49.926;8.404;2022-07-21T15:00:48;7.68;;;6.80;;
16766;SDS011;8501;49.926;8.404;2022-07-21T15:03:13;7.68;;;6.90;;
16766;SDS011;8501;49.926;8.404;2022-07-21T15:05:39;8.05;;;6.82;;
16766;SDS011;8501;49.926;8.404;2022-07-21T15:10:33;8.25;;;6.40;;
16766;SDS011;8501;49.926;8.404;2022-07-21T15:13:01;7.40;;;6.70;;
16766;SDS011;8501;49.926;8.404;2022-07-21T15:15:27;7.20;;;6.50;;
16766;SDS011;8501;49.926;8.404;2022-07-21T15:17:52;7.07;;;6.38;;
16766;SDS011;8501;49.926;8.404;2022-07-21T15:20:18;6.93;;;6.22;;
16766;SDS011;8501;49.926;8.404;2022-07-21T15:22:44;7.63;;;6.82;;
16766;SDS011;8501;49.926;8.404;2022-07-21T15:25:09;7.07;;;6.40;;
16766;SDS011;8501;49.926;8.404;2022-07-21T15:27:39;8.02;;;7.22;;
16766;SDS011;8501;49.926;8.404;2022-07-21T15:30:06;7.20;;;6.30;;
16766;SDS011;8501;49.926;8.404;2022-07-21T15:32:34;7.25;;;6.53;;
16766;SDS011;8501;49.926;8.404;2022-07-21T15:35:00;6.22;;;5.60;;
16766;SDS011;8501;49.926;8.404;2022-07-21T15:37:26;6.28;;;5.68;;
16766;SDS011;8501;49.926;8.404;2022-07-21T15:39:51;6.70;;;6.10;;